Terminal Aerodrome Forecast
Issued by NWS Pendleton, OR

Home | Current Version | Previous Version | Text Only | Print | Product List | Glossary On
Versions: 1 2 3 4 5 6 7 8 9 10 11 12
000
FTUS46 KPDT 041726
TAFPDT
TAF
KPDT 041726Z 0418/0518 27014KT P6SM SKC
     FM042100 29016G27KT P6SM SKC
     FM050700 24010KT P6SM SKC
     FM051600 26014G22KT P6SM SKC=

USA.gov is the U.S. government's official web portal to all federal, state and local government web resources and services.